Time;durP1;ratioP1;P1;durP2;ratioP2;P2;SDS_P1;SDS_P2;PMS_P1;PMS_P2;Temp;Humidity;BMP_temperature;BMP_pressure;BME280_temperature;BME280_humidity;BME280_pressure;Samples;Min_cycle;Max_cycle;Signal;HPM_P1;HPM_P2
2022/11/13 00:00:33;;;;;;;;;;;;;;;5.16;83.39;101205.00;5013280;28;19932;-70
2022/11/13 00:03:13;;;;;;;;;;;;;;;5.19;83.46;101212.75;5014211;28;19926;-70
2022/11/13 00:05:58;;;;;;;;;;;;;;;4.98;83.17;101209.25;5014878;28;19969;-71
2022/11/13 00:08:38;;;;;;;;;;;;;;;4.92;83.52;101203.03;5012958;28;19925;-70
2022/11/13 00:11:19;;;;;;;;;;;;;;;4.90;83.47;101200.41;5013297;28;19932;-70
2022/11/13 00:13:58;;;;;;;;;;;;;;;4.83;83.70;101198.41;5014075;28;19925;-70
2022/11/13 00:16:39;;;;;;;;;;;;;;;4.82;83.42;101199.22;5014114;28;20041;-71
2022/11/13 00:19:21;;;;;;;;;;;;;;;4.87;83.58;101202.81;5014120;28;19926;-71
2022/11/13 00:22:01;;;;;;;;;;;;;;;4.90;83.63;101200.41;5014107;28;19932;-70
2022/11/13 00:24:40;;;;;;;;;;;;;;;4.96;83.52;101198.19;5014048;28;19932;-70
2022/11/13 00:27:19;;;;;;;;;;;;;;;4.95;83.64;101203.16;5013950;28;20364;-70
2022/11/13 00:29:59;;;;;;;;;;;;;;;4.97;83.82;101201.56;5014332;28;19925;-70
2022/11/13 00:32:40;;;;;;;;;;;;;;;5.07;83.87;101209.66;5013716;28;19925;-70
2022/11/13 00:35:19;;;;;;;;;;;;;;;5.12;83.88;101203.13;5013919;28;19926;-70
2022/11/13 00:37:59;;;;;;;;;;;;;;;5.12;83.76;101202.25;5013960;28;19933;-69
2022/11/13 00:40:38;;;;;;;;;;;;;;;5.04;83.83;101198.53;5013000;28;19949;-71
2022/11/13 00:43:18;;;;;;;;;;;;;;;5.01;84.15;101198.41;5014056;28;20016;-71
2022/11/13 00:45:57;;;;;;;;;;;;;;;5.10;84.05;101201.34;5014098;28;20257;-71
2022/11/13 00:48:38;;;;;;;;;;;;;;;5.07;84.14;101209.66;5013823;28;20311;-71
2022/11/13 00:51:18;;;;;;;;;;;;;;;5.00;84.34;101202.59;5014521;28;19964;-71
2022/11/13 00:53:57;;;;;;;;;;;;;;;4.92;83.96;101208.09;5017916;28;19925;-71
2022/11/13 00:56:37;;;;;;;;;;;;;;;4.89;84.16;101203.75;5017887;28;19925;-71
2022/11/13 00:59:16;;;;;;;;;;;;;;;4.90;84.20;101200.41;5017766;28;20290;-71
2022/11/13 01:01:56;;;;;;;;;;;;;;;4.86;84.04;101193.50;5017461;28;19965;-69
2022/11/13 01:04:37;;;;;;;;;;;;;;;4.85;84.42;101190.91;5017687;28;19965;-71
2022/11/13 01:07:17;;;;;;;;;;;;;;;4.80;83.96;101199.94;5017550;28;19925;-70
2022/11/13 01:09:56;;;;;;;;;;;;;;;4.76;84.39;101191.31;5017307;28;20434;-70
2022/11/13 01:12:37;;;;;;;;;;;;;;;4.83;84.70;101188.28;5017294;28;19925;-71
2022/11/13 01:15:16;;;;;;;;;;;;;;;4.71;84.19;101192.78;5017768;28;20016;-71
2022/11/13 01:17:55;;;;;;;;;;;;;;;4.63;84.39;101194.94;5017180;28;19925;-71
2022/11/13 01:20:36;;;;;;;;;;;;;;;4.63;84.63;101204.22;5017113;28;19926;-72
2022/11/13 01:23:15;;;;;;;;;;;;;;;4.68;84.76;101198.56;5017087;28;19925;-71
2022/11/13 01:25:53;;;;;;;;;;;;;;;4.74;84.70;101195.47;5017036;28;19925;-70
2022/11/13 01:28:33;;;;;;;;;;;;;;;4.74;84.71;101203.03;5017164;28;19930;-70
2022/11/13 01:31:13;;;;;;;;;;;;;;;4.78;84.46;101199.84;5017149;28;20269;-70
2022/11/13 01:33:52;;;;;;;;;;;;;;;4.71;84.50;101207.94;5017166;28;19926;-71
2022/11/13 01:36:33;;;;;;;;;;;;;;;4.72;84.59;101199.59;5016818;28;19926;-71
2022/11/13 01:39:11;;;;;;;;;;;;;;;4.62;84.66;101198.28;5017041;28;20364;-70
2022/11/13 01:41:51;;;;;;;;;;;;;;;4.59;84.67;101197.25;5016729;28;19932;-72
2022/11/13 01:44:46;;;;;;;;;;;;;;;4.65;84.73;101203.47;5016687;28;19956;-71
2022/11/13 01:47:26;;;;;;;;;;;;;;;4.65;85.00;101208.50;5016834;28;19933;-71
2022/11/13 01:50:10;;;;;;;;;;;;;;;4.72;84.82;101202.09;5016556;28;19932;-71
2022/11/13 01:52:51;;;;;;;;;;;;;;;4.66;84.81;101201.81;5016502;28;19925;-72
2022/11/13 01:55:29;;;;;;;;;;;;;;;4.73;84.87;101201.28;5016805;28;20012;-71
2022/11/13 01:58:10;;;;;;;;;;;;;;;4.66;84.93;101196.75;5016341;28;20406;-71
2022/11/13 02:00:49;;;;;;;;;;;;;;;4.75;84.57;101197.19;5016426;28;20368;-71
2022/11/13 02:03:29;;;;;;;;;;;;;;;4.83;84.72;101193.34;5016560;28;20327;-71
2022/11/13 02:06:08;;;;;;;;;;;;;;;4.89;84.91;101193.66;5016245;28;20380;-71
2022/11/13 02:08:50;;;;;;;;;;;;;;;4.88;84.91;101196.09;5016387;28;19926;-71
2022/11/13 02:11:30;;;;;;;;;;;;;;;4.85;84.95;101196.81;5016474;28;20299;-70
2022/11/13 02:14:09;;;;;;;;;;;;;;;4.85;84.87;101201.88;5016131;28;19953;-70
2022/11/13 02:16:52;;;;;;;;;;;;;;;4.82;84.73;101189.09;5016366;28;20376;-71
2022/11/13 02:19:33;;;;;;;;;;;;;;;4.82;84.91;101186.56;5016047;28;19929;-71
2022/11/13 02:22:17;;;;;;;;;;;;;;;4.86;84.70;101188.44;5016303;28;19939;-71
2022/11/13 02:25:00;;;;;;;;;;;;;;;4.86;84.62;101190.97;5015883;28;20318;-71
2022/11/13 02:27:41;;;;;;;;;;;;;;;4.83;84.60;101190.81;5015874;28;19930;-71
2022/11/13 02:30:22;;;;;;;;;;;;;;;4.85;84.56;101184.16;5015780;28;20025;-71
2022/11/13 02:33:19;;;;;;;;;;;;;;;4.85;84.83;101190.91;5015567;28;19933;-70
2022/11/13 02:35:59;;;;;;;;;;;;;;;4.86;84.52;101183.38;5015976;28;20283;-71
2022/11/13 02:38:38;;;;;;;;;;;;;;;4.84;84.59;101182.44;5015954;28;19947;-71
2022/11/13 02:41:19;;;;;;;;;;;;;;;4.83;84.64;101174.78;5015921;28;20367;-71
2022/11/13 02:43:58;;;;;;;;;;;;;;;4.83;84.58;101168.06;5015835;28;20393;-70
2022/11/13 02:46:38;;;;;;;;;;;;;;;4.81;84.48;101172.19;5015457;28;19930;-70
2022/11/13 02:49:17;;;;;;;;;;;;;;;4.82;84.42;101171.41;5015722;28;19949;-69
2022/11/13 02:51:56;;;;;;;;;;;;;;;4.80;84.22;101167.91;5015403;28;19965;-71
2022/11/13 02:54:36;;;;;;;;;;;;;;;4.78;84.35;101166.97;5015700;28;19929;-72
2022/11/13 02:57:16;;;;;;;;;;;;;;;4.83;84.22;101173.13;5015658;28;19926;-71
2022/11/13 02:59:55;;;;;;;;;;;;;;;4.85;83.86;101158.88;5015359;28;19925;-70
2022/11/13 03:02:35;;;;;;;;;;;;;;;4.88;84.16;101164.06;5015194;28;19957;-71
2022/11/13 03:05:14;;;;;;;;;;;;;;;4.88;84.33;101165.72;5015752;28;19925;-71
2022/11/13 03:07:54;;;;;;;;;;;;;;;4.89;84.38;101167.47;5015126;28;19925;-71
2022/11/13 03:10:33;;;;;;;;;;;;;;;4.92;84.08;101163.41;5014976;28;19933;-71
2022/11/13 03:13:14;;;;;;;;;;;;;;;5.00;84.51;101158.69;5015430;28;20052;-71
2022/11/13 03:15:54;;;;;;;;;;;;;;;5.06;84.32;101164.88;5014964;28;19925;-71
2022/11/13 03:18:33;;;;;;;;;;;;;;;5.09;84.53;101161.63;5014941;28;19925;-71
2022/11/13 03:21:13;;;;;;;;;;;;;;;5.10;84.24;101154.13;5014861;28;19971;-71
2022/11/13 03:23:53;;;;;;;;;;;;;;;5.09;84.44;101157.44;5015131;28;20308;-71
2022/11/13 03:26:33;;;;;;;;;;;;;;;5.10;84.47;101159.19;5015148;28;19930;-71
2022/11/13 03:29:14;;;;;;;;;;;;;;;5.14;84.51;101145.88;5014738;28;19925;-71
2022/11/13 03:31:54;;;;;;;;;;;;;;;5.17;84.45;101146.00;5014591;28;19925;-71
2022/11/13 03:34:32;;;;;;;;;;;;;;;5.19;84.35;101134.28;5014671;28;19925;-71
2022/11/13 03:37:12;;;;;;;;;;;;;;;5.22;84.44;101131.03;5014762;28;19968;-71
2022/11/13 03:39:51;;;;;;;;;;;;;;;5.21;84.54;101132.69;5014579;28;19932;-71
2022/11/13 03:42:30;;;;;;;;;;;;;;;5.27;84.71;101132.09;5014577;28;19932;-71
2022/11/13 03:45:11;;;;;;;;;;;;;;;5.30;84.97;101132.25;5014542;28;19932;-71
2022/11/13 03:47:51;;;;;;;;;;;;;;;5.29;84.76;101130.50;5014757;28;19937;-71
2022/11/13 03:50:30;;;;;;;;;;;;;;;5.27;85.08;101130.44;5014384;28;19925;-71
2022/11/13 03:53:10;;;;;;;;;;;;;;;5.33;85.31;101128.16;5014664;28;20382;-70
2022/11/13 03:55:49;;;;;;;;;;;;;;;5.37;85.52;101129.16;5014653;28;20376;-71
2022/11/13 03:58:28;;;;;;;;;;;;;;;5.40;85.46;101130.16;5013474;28;20430;-69
2022/11/13 04:01:11;;;;;;;;;;;;;;;5.47;85.52;101130.44;5014329;28;19925;-72
2022/11/13 04:03:50;;;;;;;;;;;;;;;5.52;85.53;101128.97;5014532;28;20455;-69
2022/11/13 04:06:29;;;;;;;;;;;;;;;5.60;85.64;101125.06;5013870;28;19933;-71
2022/11/13 04:09:07;;;;;;;;;;;;;;;5.66;86.01;101125.34;5014158;28;19929;-72
2022/11/13 04:11:47;;;;;;;;;;;;;;;5.71;86.03;101126.41;5014595;28;19956;-71
2022/11/13 04:14:26;;;;;;;;;;;;;;;5.72;85.59;101123.06;5014211;28;20143;-71
2022/11/13 04:17:07;;;;;;;;;;;;;;;5.72;86.12;101112.91;5014187;28;20458;-70
2022/11/13 04:19:47;;;;;;;;;;;;;;;5.74;86.02;101113.84;5014136;28;19933;-70
2022/11/13 04:22:26;;;;;;;;;;;;;;;5.77;85.92;101111.44;5014386;28;20273;-71
2022/11/13 04:25:06;;;;;;;;;;;;;;;5.77;85.67;101121.56;5014745;28;19925;-70
2022/11/13 04:27:46;;;;;;;;;;;;;;;5.67;86.09;101114.41;5016933;28;19926;-70
2022/11/13 04:30:25;;;;;;;;;;;;;;;5.67;86.52;101114.41;5018034;28;19935;-71
2022/11/13 04:33:06;;;;;;;;;;;;;;;5.63;86.35;101115.06;5018045;28;19926;-71
2022/11/13 04:35:47;;;;;;;;;;;;;;;5.54;86.74;101117.22;5018196;28;19949;-71
2022/11/13 04:38:26;;;;;;;;;;;;;;;5.48;86.13;101111.88;5018477;28;19976;-71
2022/11/13 04:43:55;;;;;;;;;;;;;;;5.53;86.67;101108.75;5018365;28;20272;-70
2022/11/13 04:46:35;;;;;;;;;;;;;;;5.56;86.70;101115.63;5018066;28;20287;-70
2022/11/13 04:49:15;;;;;;;;;;;;;;;5.58;86.68;101101.34;5017947;28;19932;-71
2022/11/13 04:51:55;;;;;;;;;;;;;;;5.62;86.91;101111.66;5017710;28;19980;-71
2022/11/13 04:54:34;;;;;;;;;;;;;;;5.64;86.72;101101.63;5017571;28;19925;-71
2022/11/13 04:57:14;;;;;;;;;;;;;;;5.60;86.41;101102.28;5016666;28;19932;-71
2022/11/13 04:59:54;;;;;;;;;;;;;;;5.59;86.61;101101.41;5017543;28;19976;-71
2022/11/13 05:02:33;;;;;;;;;;;;;;;5.66;86.89;101102.56;5017803;28;19929;-71
2022/11/13 05:05:14;;;;;;;;;;;;;;;5.67;87.24;101089.06;5017391;28;19932;-70
2022/11/13 05:07:52;;;;;;;;;;;;;;;5.71;86.78;101101.91;5018254;28;20241;-70
2022/11/13 05:10:33;;;;;;;;;;;;;;;5.78;86.77;101113.19;5017273;28;19925;-70
2022/11/13 05:13:11;;;;;;;;;;;;;;;5.81;86.85;101103.16;5017267;28;19932;-70
2022/11/13 05:15:51;;;;;;;;;;;;;;;5.82;87.05;101107.44;5017188;28;20012;-70
2022/11/13 05:18:32;;;;;;;;;;;;;;;5.83;87.26;101096.50;5017532;28;19925;-70
2022/11/13 05:21:13;;;;;;;;;;;;;;;5.82;87.28;101104.91;5017794;28;19949;-71
2022/11/13 05:23:52;;;;;;;;;;;;;;;5.84;86.63;101105.81;5017096;28;19932;-71
2022/11/13 05:26:32;;;;;;;;;;;;;;;5.88;87.05;101112.78;5016981;28;19925;-70
2022/11/13 05:29:11;;;;;;;;;;;;;;;5.90;87.05;101112.03;5016992;28;19926;-70
2022/11/13 05:31:51;;;;;;;;;;;;;;;5.95;87.37;101117.31;5016149;28;19932;-71
2022/11/13 05:34:30;;;;;;;;;;;;;;;5.97;87.22;101110.63;5015997;28;20387;-71
2022/11/13 05:37:11;;;;;;;;;;;;;;;5.97;87.01;101105.56;5015182;28;19926;-71
2022/11/13 05:39:50;;;;;;;;;;;;;;;5.93;87.07;101111.28;5015619;28;19925;-71
2022/11/13 05:42:30;;;;;;;;;;;;;;;5.90;87.14;101113.72;5014676;28;19925;-71
2022/11/13 05:45:10;;;;;;;;;;;;;;;5.90;87.26;101112.03;5015539;28;19932;-72
2022/11/13 05:47:50;;;;;;;;;;;;;;;5.98;87.48;101123.34;5015493;28;19926;-72
2022/11/13 05:50:30;;;;;;;;;;;;;;;6.03;87.41;101121.00;5015713;28;20391;-71
2022/11/13 05:53:11;;;;;;;;;;;;;;;6.05;86.66;101124.47;5014558;28;19932;-71
2022/11/13 05:55:51;;;;;;;;;;;;;;;6.09;87.22;101117.03;5015364;28;19992;-71
2022/11/13 05:58:31;;;;;;;;;;;;;;;6.12;87.01;101123.91;5015394;28;19932;-71
2022/11/13 06:01:10;;;;;;;;;;;;;;;6.14;86.86;101129.06;5015313;28;19929;-71
2022/11/13 06:03:50;;;;;;;;;;;;;;;6.15;87.09;101135.84;5015591;28;20330;-71
2022/11/13 06:06:29;;;;;;;;;;;;;;;6.10;86.90;101128.06;5015191;28;19929;-71
2022/11/13 06:09:16;;;;;;;;;;;;;;;6.09;86.60;101127.19;5015106;28;20387;-73
2022/11/13 06:11:55;;;;;;;;;;;;;;;6.09;86.83;101131.41;5015308;28;19953;-72
2022/11/13 06:14:34;;;;;;;;;;;;;;;6.06;86.10;101133.81;5015160;28;19925;-72
2022/11/13 06:17:13;;;;;;;;;;;;;;;6.01;86.47;101137.81;5015295;28;20318;-70
2022/11/13 06:19:53;;;;;;;;;;;;;;;6.02;86.15;101137.03;5014966;28;19926;-70
2022/11/13 06:22:32;;;;;;;;;;;;;;;6.00;85.83;101143.69;5015195;28;20342;-72
2022/11/13 06:25:13;;;;;;;;;;;;;;;5.87;86.36;101149.06;5014944;28;19999;-72
2022/11/13 06:27:52;;;;;;;;;;;;;;;5.90;86.27;101149.19;5014799;28;20016;-71
2022/11/13 06:30:32;;;;;;;;;;;;;;;5.93;86.61;101154.38;5015021;28;19929;-70
2022/11/13 06:33:25;;;;;;;;;;;;;;;5.84;86.71;101154.88;5112284;27;19969;-71
2022/11/13 06:36:07;;;;;;;;;;;;;;;5.91;86.97;101151.78;5112252;28;19931;-71
2022/11/13 06:38:47;;;;;;;;;;;;;;;5.94;86.69;101153.59;5112040;28;20022;-71
2022/11/13 06:41:30;;;;;;;;;;;;;;;5.94;86.88;101148.50;5111699;28;19932;-71
2022/11/13 06:44:08;;;;;;;;;;;;;;;6.05;87.37;101149.81;5111682;28;19931;-71
2022/11/13 06:46:47;;;;;;;;;;;;;;;6.18;86.75;101146.97;5111518;28;19924;-71
2022/11/13 06:49:28;;;;;;;;;;;;;;;6.28;86.99;101146.56;5111608;28;20356;-71
2022/11/13 06:52:07;;;;;;;;;;;;;;;6.37;86.63;101146.91;5111418;28;19924;-71
2022/11/13 06:54:47;;;;;;;;;;;;;;;6.46;86.71;101137.13;5111684;28;20290;-71
2022/11/13 06:57:25;;;;;;;;;;;;;;;6.52;86.81;101150.06;5110495;28;20375;-71
2022/11/13 07:00:06;;;;;;;;;;;;;;;6.63;87.29;101138.63;5109587;28;19931;-71
2022/11/13 07:02:48;;;;;;;;;;;;;;;6.78;86.50;101145.09;5110661;28;19928;-70
2022/11/13 07:05:29;;;;;;;;;;;;;;;6.91;86.97;101145.59;5109545;28;20377;-71
2022/11/13 07:08:08;;;;;;;;;;;;;;;7.00;86.50;101145.09;5111151;28;20392;-71
2022/11/13 07:10:52;;;;;;;;;;;;;;;7.08;86.71;101149.63;5111047;28;19924;-71
2022/11/13 07:13:32;;;;;;;;;;;;;;;7.20;86.84;101141.59;5110948;28;19931;-71
2022/11/13 07:16:12;;;;;;;;;;;;;;;7.29;86.06;101149.56;5110719;28;19931;-71
2022/11/13 07:18:55;;;;;;;;;;;;;;;7.41;86.73;101152.53;5110898;28;19937;-71
2022/11/13 07:21:36;;;;;;;;;;;;;;;7.49;85.73;101142.63;5110716;28;19930;-71
2022/11/13 07:24:16;;;;;;;;;;;;;;;7.58;86.20;101143.84;5110553;28;19935;-70
2022/11/13 07:26:55;;;;;;;;;;;;;;;7.62;85.42;101135.50;5110539;28;20369;-70
2022/11/13 07:29:37;;;;;;;;;;;;;;;7.71;85.51;101135.81;5110850;28;19946;-70
2022/11/13 07:32:16;;;;;;;;;;;;;;;7.78;85.40;101142.84;5110314;28;19931;-70
2022/11/13 07:34:55;;;;;;;;;;;;;;;7.81;85.21;101137.84;5110425;28;19924;-70
2022/11/13 07:37:36;;;;;;;;;;;;;;;7.87;85.24;101130.41;5110407;28;19924;-70
2022/11/13 07:40:16;;;;;;;;;;;;;;;7.93;84.43;101130.66;5110338;28;19942;-70
2022/11/13 07:42:56;;;;;;;;;;;;;;;8.01;84.74;101136.81;5107051;28;20410;-70
2022/11/13 07:45:36;;;;;;;;;;;;;;;8.06;83.67;101137.84;5095727;28;19924;-70
2022/11/13 07:48:14;;;;;;;;;;;;;;;8.09;83.99;101132.88;5096564;28;19942;-71
2022/11/13 07:50:54;;;;;;;;;;;;;;;8.19;84.06;101130.59;5096706;28;19924;-71
2022/11/13 07:53:37;;;;;;;;;;;;;;;8.26;83.87;101132.53;5096533;28;19924;-71
2022/11/13 07:56:17;;;;;;;;;;;;;;;8.37;84.24;101131.25;5096502;28;20325;-71
2022/11/13 07:59:01;;;;;;;;;;;;;;;8.46;83.37;101126.44;5096519;28;19924;-71
2022/11/13 08:01:39;;;;;;;;;;;;;;;8.55;83.11;101126.72;5096685;28;20362;-71
2022/11/13 08:04:19;;;;;;;;;;;;;;;8.60;83.75;101126.03;5096284;28;19925;-70
2022/11/13 08:06:58;;;;;;;;;;;;;;;8.70;83.43;101129.72;5095958;28;19931;-70
2022/11/13 08:09:39;;;;;;;;;;;;;;;8.84;83.50;101131.00;5096144;28;20031;-71
2022/11/13 08:12:18;;;;;;;;;;;;;;;8.96;83.03;101128.81;5096211;28;19924;-70
2022/11/13 08:14:57;;;;;;;;;;;;;;;9.06;82.51;101128.25;5096305;28;19932;-71
2022/11/13 08:17:35;;;;;;;;;;;;;;;9.14;82.63;101119.13;5096068;28;19924;-71
2022/11/13 08:20:15;;;;;;;;;;;;;;;9.26;82.24;101127.13;5095929;28;19963;-71
2022/11/13 08:22:56;;;;;;;;;;;;;;;9.32;82.17;101119.66;5095944;28;19931;-71
2022/11/13 08:25:37;;;;;;;;;;;;;;;9.45;82.18;101119.16;5095798;28;19924;-71
2022/11/13 08:28:16;;;;;;;;;;;;;;;9.57;81.43;101118.63;5095733;28;19928;-71
2022/11/13 08:30:56;;;;;;;;;;;;;;;9.67;81.85;101122.28;5095692;28;20362;-72
2022/11/13 08:33:35;;;;;;;;;;;;;;;9.81;81.52;101119.22;5096082;28;19924;-71
2022/11/13 08:36:14;;;;;;;;;;;;;;;9.94;81.31;101125.50;5095525;28;19928;-71
2022/11/13 08:38:54;;;;;;;;;;;;;;;10.04;81.21;101132.56;5095757;28;20374;-71
2022/11/13 08:41:33;;;;;;;;;;;;;;;10.04;80.87;101132.56;5095276;28;19924;-71
2022/11/13 08:44:13;;;;;;;;;;;;;;;10.12;80.86;101131.13;5095431;28;19935;-71
2022/11/13 08:46:52;;;;;;;;;;;;;;;10.20;80.48;101129.59;5095657;28;20293;-71
2022/11/13 08:49:33;;;;;;;;;;;;;;;10.38;80.47;101139.38;5095533;28;19931;-71
2022/11/13 08:52:12;;;;;;;;;;;;;;;10.51;80.51;101129.47;5095197;28;19924;-71
2022/11/13 08:54:51;;;;;;;;;;;;;;;10.70;80.19;101134.16;5094354;28;19932;-72
2022/11/13 08:57:32;;;;;;;;;;;;;;;10.78;79.98;101137.78;5095499;28;20408;-72
2022/11/13 09:00:12;;;;;;;;;;;;;;;10.86;79.53;101127.72;5095192;28;19924;-72
2022/11/13 09:02:53;;;;;;;;;;;;;;;10.90;79.25;101136.28;5095242;28;19931;-72
2022/11/13 09:05:33;;;;;;;;;;;;;;;11.01;79.47;101139.97;5095093;28;20011;-72
2022/11/13 09:08:12;;;;;;;;;;;;;;;11.09;78.69;101133.28;5095264;28;19931;-72
2022/11/13 09:10:52;;;;;;;;;;;;;;;11.18;78.57;101134.34;5095057;28;19924;-72
2022/11/13 09:13:33;;;;;;;;;;;;;;;11.30;78.39;101128.63;5094833;28;19924;-71
2022/11/13 09:16:17;;;;;;;;;;;;;;;11.43;77.93;101135.69;5094881;28;19934;-72
2022/11/13 09:18:56;;;;;;;;;;;;;;;11.57;77.79;101136.81;5094972;28;19924;-72
2022/11/13 09:21:35;;;;;;;;;;;;;;;11.65;77.45;101137.81;5095028;28;19924;-72
2022/11/13 09:24:15;;;;;;;;;;;;;;;11.65;77.10;101134.41;5094728;28;19935;-72
2022/11/13 09:26:54;;;;;;;;;;;;;;;11.61;76.97;101130.06;5094671;28;20401;-71
2022/11/13 09:29:35;;;;;;;;;;;;;;;11.70;76.90;101133.69;5094680;28;20007;-71
2022/11/13 09:32:14;;;;;;;;;;;;;;;11.81;77.00;101124.50;5094333;28;19932;-71
2022/11/13 09:34:53;;;;;;;;;;;;;;;11.93;76.76;101122.16;5094522;28;19931;-71
2022/11/13 09:37:33;;;;;;;;;;;;;;;12.05;76.58;101113.81;5094652;28;20388;-71
2022/11/13 09:40:16;;;;;;;;;;;;;;;12.26;76.24;101114.13;5094841;28;19965;-71
2022/11/13 09:42:56;;;;;;;;;;;;;;;12.36;75.75;101116.00;5094706;28;19924;-72
2022/11/13 09:45:39;;;;;;;;;;;;;;;12.32;75.53;101103.13;5094349;28;19973;-71
2022/11/13 09:48:25;;;;;;;;;;;;;;;12.52;75.67;101106.88;5094631;28;19928;-71
2022/11/13 09:51:07;;;;;;;;;;;;;;;12.75;75.44;101092.66;5094387;28;19924;-71
2022/11/13 09:53:47;;;;;;;;;;;;;;;12.77;74.54;101103.78;5093139;28;19931;-71
2022/11/13 09:56:27;;;;;;;;;;;;;;;12.70;74.33;101094.28;5094156;28;19924;-71
2022/11/13 09:59:15;;;;;;;;;;;;;;;12.81;74.71;101100.44;5094209;28;19931;-71
2022/11/13 10:02:02;;;;;;;;;;;;;;;12.95;73.71;101088.66;5094482;28;19976;-71
2022/11/13 10:04:50;;;;;;;;;;;;;;;12.94;73.90;101092.06;5094151;28;20015;-72
2022/11/13 10:07:35;;;;;;;;;;;;;;;13.03;73.28;101081.91;5094101;28;19932;-71
2022/11/13 10:10:34;;;;;;;;;;;;;;;13.25;73.69;101083.91;5094347;28;19951;-71
2022/11/13 10:13:15;;;;;;;;;;;;;;;13.42;72.92;101082.38;5094110;28;20390;-71
2022/11/13 10:16:02;;;;;;;;;;;;;;;13.65;72.63;101074.06;5093866;28;19931;-71
2022/11/13 10:18:44;;;;;;;;;;;;;;;13.85;72.34;101068.25;5093947;28;19924;-71
2022/11/13 10:21:29;;;;;;;;;;;;;;;13.93;71.70;101065.75;5093820;28;19924;-71
2022/11/13 10:24:14;;;;;;;;;;;;;;;13.82;71.39;101062.25;5093735;28;19969;-71
2022/11/13 10:26:55;;;;;;;;;;;;;;;13.93;71.05;101056.34;5094176;28;19931;-71
2022/11/13 10:29:35;;;;;;;;;;;;;;;14.19;70.98;101053.94;5093627;28;19932;-71
2022/11/13 10:32:18;;;;;;;;;;;;;;;14.30;70.19;101047.19;5084326;28;19977;-72
2022/11/13 10:35:00;;;;;;;;;;;;;;;14.28;70.02;101038.59;5083851;28;20011;-72
2022/11/13 10:37:48;;;;;;;;;;;;;;;14.30;69.57;101036.91;5083957;28;20427;-72
2022/11/13 10:40:29;;;;;;;;;;;;;;;14.42;69.46;101031.84;5083471;28;19947;-71
2022/11/13 10:43:14;;;;;;;;;;;;;;;14.61;69.26;101020.81;5081208;28;19974;-71
2022/11/13 10:45:54;;;;;;;;;;;;;;;14.59;68.74;101014.81;5085271;28;20267;-71
2022/11/13 10:48:35;;;;;;;;;;;;;;;14.63;68.52;101019.13;5093653;28;19925;-72
2022/11/13 10:51:23;;;;;;;;;;;;;;;14.76;68.21;101007.16;5093876;28;19970;-71
2022/11/13 10:54:16;;;;;;;;;;;;;;;14.95;67.68;101008.09;5093538;28;20446;-71
2022/11/13 10:56:59;;;;;;;;;;;;;;;14.97;67.08;101006.41;5093433;28;19924;-72
2022/11/13 10:59:39;;;;;;;;;;;;;;;14.99;66.89;101007.25;5093750;28;20366;-72
2022/11/13 11:02:20;;;;;;;;;;;;;;;15.13;66.61;101008.13;5093476;28;19993;-72
2022/11/13 11:05:04;;;;;;;;;;;;;;;14.92;65.82;101001.25;5093352;28;19943;-72
2022/11/13 11:07:44;;;;;;;;;;;;;;;15.02;66.11;101004.69;5093445;28;20386;-72
2022/11/13 11:10:26;;;;;;;;;;;;;;;15.26;66.41;100997.03;5093802;28;20381;-72
2022/11/13 11:13:09;;;;;;;;;;;;;;;15.36;65.79;100996.16;5093377;28;20374;-72
2022/11/13 11:15:51;;;;;;;;;;;;;;;15.61;66.02;101003.09;5093347;28;19925;-71
2022/11/13 11:18:34;;;;;;;;;;;;;;;15.78;65.66;100985.91;5093525;28;19967;-71
2022/11/13 11:21:16;;;;;;;;;;;;;;;15.79;64.96;100982.47;5097454;28;19924;-72
2022/11/13 11:23:57;;;;;;;;;;;;;;;15.72;64.45;100979.91;5097436;28;19924;-71
2022/11/13 11:26:39;;;;;;;;;;;;;;;15.74;64.08;100983.34;5097342;28;19924;-71
2022/11/13 11:29:21;;;;;;;;;;;;;;;15.79;63.68;100979.88;5097323;28;19928;-71
2022/11/13 11:32:05;;;;;;;;;;;;;;;15.87;63.50;100974.75;5096667;28;20011;-71
2022/11/13 11:34:46;;;;;;;;;;;;;;;15.89;62.85;100958.44;5096889;28;19931;-71
2022/11/13 11:37:30;;;;;;;;;;;;;;;15.92;62.95;100955.84;5097148;28;19986;-71
2022/11/13 11:40:17;;;;;;;;;;;;;;;16.04;62.62;100955.81;5097074;28;19934;-71
2022/11/13 11:43:01;;;;;;;;;;;;;;;16.02;62.09;100949.81;5096892;28;19931;-71
2022/11/13 11:45:40;;;;;;;;;;;;;;;16.07;61.99;100950.69;5095674;28;19935;-71
2022/11/13 11:48:21;;;;;;;;;;;;;;;16.19;61.39;100941.19;5096770;28;20425;-71
2022/11/13 11:51:04;;;;;;;;;;;;;;;16.17;60.86;100932.59;5096726;28;19928;-71
2022/11/13 11:53:47;;;;;;;;;;;;;;;16.15;60.33;100934.34;5096935;28;20434;-71
2022/11/13 11:56:33;;;;;;;;;;;;;;;16.21;60.10;100929.16;5096807;28;19993;-71
2022/11/13 11:59:20;;;;;;;;;;;;;;;16.39;60.70;100923.91;5096719;28;19924;-72
2022/11/13 12:02:24;;;;;;;;;;;;;;;16.35;60.23;100919.63;5096246;28;20018;-72
2022/11/13 12:05:12;;;;;;;;;;;;;;;16.34;60.42;100912.78;5096287;28;19924;-72
2022/11/13 12:08:13;;;;;;;;;;;;;;;16.42;60.48;100919.63;5096268;28;19977;-71
2022/11/13 12:10:57;;;;;;;;;;;;;;;16.43;60.25;100911.03;5095342;28;19924;-72
2022/11/13 12:13:42;;;;;;;;;;;;;;;16.42;60.45;100905.84;5095052;28;20389;-72
2022/11/13 12:16:23;;;;;;;;;;;;;;;16.34;60.10;100902.50;5096101;28;19924;-71
2022/11/13 12:19:06;;;;;;;;;;;;;;;16.22;60.05;100910.25;5096122;28;19924;-71
2022/11/13 12:21:52;;;;;;;;;;;;;;;16.27;59.59;100903.38;5096495;28;19985;-72
2022/11/13 12:24:42;;;;;;;;;;;;;;;16.34;59.46;100899.91;5095965;28;19924;-71
2022/11/13 12:27:25;;;;;;;;;;;;;;;16.38;59.49;100897.31;5095888;28;19924;-70
2022/11/13 12:30:12;;;;;;;;;;;;;;;16.42;59.16;100892.97;5095757;28;19925;-71
2022/11/13 12:33:03;;;;;;;;;;;;;;;16.48;59.44;100882.66;5094132;28;20259;-71
2022/11/13 12:35:44;;;;;;;;;;;;;;;16.30;59.70;100887.88;5094421;28;20348;-71
2022/11/13 12:38:35;;;;;;;;;;;;;;;16.26;60.19;100871.59;5095795;28;19975;-71
2022/11/13 12:41:18;;;;;;;;;;;;;;;16.25;60.16;100874.16;5095874;28;20413;-72
2022/11/13 12:44:03;;;;;;;;;;;;;;;16.24;60.48;100865.59;5095511;28;19932;-71
2022/11/13 12:46:44;;;;;;;;;;;;;;;16.22;60.37;100869.03;5095737;28;19924;-71
2022/11/13 12:49:30;;;;;;;;;;;;;;;16.17;59.52;100865.63;5095308;28;19982;-71
2022/11/13 12:52:18;;;;;;;;;;;;;;;16.06;59.66;100869.09;5095348;28;20396;-71
2022/11/13 12:55:06;;;;;;;;;;;;;;;16.04;60.38;100865.69;5095292;28;20316;-71
2022/11/13 12:57:47;;;;;;;;;;;;;;;15.98;59.87;100863.13;5095630;28;19924;-73
2022/11/13 13:00:28;;;;;;;;;;;;;;;15.95;60.18;100859.72;5095134;28;20362;-72
2022/11/13 13:03:20;;;;;;;;;;;;;;;15.95;59.93;100860.56;5095223;28;20010;-72
2022/11/13 13:06:09;;;;;;;;;;;;;;;15.85;59.42;100864.03;5078064;28;20453;-71
2022/11/13 13:08:57;;;;;;;;;;;;;;;15.76;59.49;100864.06;5095157;28;19930;-72
2022/11/13 13:11:39;;;;;;;;;;;;;;;15.72;59.58;100852.03;5095085;28;19924;-72
2022/11/13 13:14:24;;;;;;;;;;;;;;;15.61;60.06;100858.94;5094894;28;20019;-72
2022/11/13 13:17:16;;;;;;;;;;;;;;;15.48;60.22;100849.53;5094871;28;19946;-72
2022/11/13 13:20:01;;;;;;;;;;;;;;;15.26;61.17;100850.41;5095105;28;19924;-72
2022/11/13 13:22:41;;;;;;;;;;;;;;;15.18;61.84;100854.69;5095164;28;20328;-71
2022/11/13 13:25:25;;;;;;;;;;;;;;;15.05;62.65;100847.81;5095062;28;19932;-72
2022/11/13 13:28:18;;;;;;;;;;;;;;;14.97;62.59;100852.13;5094609;28;20023;-72
2022/11/13 13:31:03;;;;;;;;;;;;;;;14.87;62.92;100847.81;5094969;28;20023;-71
2022/11/13 13:33:50;;;;;;;;;;;;;;;14.63;63.22;100862.38;5095026;28;20491;-71
2022/11/13 13:36:35;;;;;;;;;;;;;;;14.51;63.53;100852.06;5093237;28;20021;-71
2022/11/13 13:39:24;;;;;;;;;;;;;;;14.40;64.26;100853.75;5094862;28;19947;-71
2022/11/13 13:42:11;;;;;;;;;;;;;;;14.23;64.46;100855.38;5094292;28;19931;-70
2022/11/13 13:44:59;;;;;;;;;;;;;;;14.04;65.35;100849.31;5094643;28;19928;-71
2022/11/13 13:47:40;;;;;;;;;;;;;;;13.88;66.14;100841.53;5094442;28;19978;-71
2022/11/13 13:50:21;;;;;;;;;;;;;;;13.65;66.12;100840.59;5094925;28;20254;-71
2022/11/13 13:53:02;;;;;;;;;;;;;;;13.53;67.15;100843.06;5094245;28;19982;-71
2022/11/13 13:55:45;;;;;;;;;;;;;;;13.46;67.37;100836.19;5094423;28;19928;-71
2022/11/13 13:58:27;;;;;;;;;;;;;;;13.27;67.93;100836.06;5093308;28;20374;-71